Time;durP1;ratioP1;P1;durP2;ratioP2;P2;SDS_P1;SDS_P2;PMS_P1;PMS_P2;Temp;Humidity;BMP_temperature;BMP_pressure;BME280_temperature;BME280_humidity;BME280_pressure;Samples;Min_cycle;Max_cycle;Signal;HPM_P1;HPM_P2
2022/06/15 04:20:36;;;;;;;4.03;2.40;;;14.00;99.90;;;;;;4848715;29;20262;-93
2022/06/15 04:23:10;;;;;;;2.33;2.13;;;14.00;99.90;;;;;;4849090;29;20247;-92
2022/06/15 04:25:44;;;;;;;3.20;2.40;;;13.90;99.90;;;;;;4852853;29;20239;-93
2022/06/15 04:28:16;;;;;;;2.83;2.40;;;13.90;99.90;;;;;;4870173;29;20241;-92
2022/06/15 04:30:50;;;;;;;2.50;2.27;;;13.90;99.90;;;;;;4869289;29;20225;-92
2022/06/15 04:33:23;;;;;;;3.77;2.30;;;13.90;99.90;;;;;;4868185;29;20195;-91
2022/06/15 04:35:58;;;;;;;3.77;2.70;;;13.80;99.90;;;;;;4870597;29;20192;-93
2022/06/15 04:38:30;;;;;;;3.10;2.27;;;13.80;99.90;;;;;;4868749;29;20252;-93
2022/06/15 04:41:03;;;;;;;5.77;2.77;;;13.80;99.90;;;;;;4850339;29;20220;-93
2022/06/15 04:43:35;;;;;;;3.57;2.60;;;13.80;99.90;;;;;;4864518;29;20212;-93
2022/06/15 04:46:07;;;;;;;2.83;2.53;;;13.70;99.90;;;;;;4866414;29;20272;-93
2022/06/15 04:48:41;;;;;;;3.70;2.70;;;13.70;99.90;;;;;;4865399;29;20204;-92
2022/06/15 04:51:20;;;;;;;3.53;2.50;;;13.70;99.90;;;;;;4864874;29;20211;-93
2022/06/15 04:53:52;;;;;;;3.70;2.80;;;13.70;99.90;;;;;;4849355;29;20222;-92
2022/06/15 04:56:24;;;;;;;5.10;2.80;;;13.60;99.90;;;;;;4851940;29;20274;-92
2022/06/15 04:58:56;;;;;;;3.13;2.40;;;13.60;99.90;;;;;;4897876;24;20242;-93
2022/06/15 05:01:27;;;;;;;3.87;2.70;;;13.60;99.90;;;;;;4867620;29;20279;-93
2022/06/15 05:03:58;;;;;;;3.87;3.03;;;13.60;99.90;;;;;;4883201;29;20218;-95
2022/06/15 05:06:37;;;;;;;4.40;3.17;;;13.60;99.90;;;;;;4872931;29;20258;-92
2022/06/15 05:09:12;;;;;;;5.17;2.90;;;13.60;99.90;;;;;;4871360;29;20211;-93
2022/06/15 05:11:44;;;;;;;6.47;2.60;;;13.50;99.90;;;;;;4869262;29;20548;-93
2022/06/15 05:14:16;;;;;;;4.73;3.20;;;13.50;99.90;;;;;;4871772;29;20226;-92
2022/06/15 05:16:47;;;;;;;3.70;2.97;;;13.50;99.90;;;;;;4869449;29;20223;-93
2022/06/15 05:19:19;;;;;;;3.50;2.70;;;13.50;99.90;;;;;;4870976;29;20211;-92
2022/06/15 05:21:52;;;;;;;4.00;2.97;;;13.50;99.90;;;;;;4871476;29;20242;-93
2022/06/15 05:24:26;;;;;;;4.77;2.83;;;13.40;99.90;;;;;;4876877;29;20232;-93
2022/06/15 05:26:59;;;;;;;3.17;2.87;;;13.40;99.90;;;;;;4871886;29;20250;-90
2022/06/15 05:29:30;;;;;;;6.00;2.87;;;13.40;99.90;;;;;;4875436;29;20226;-92
2022/06/15 05:32:01;;;;;;;5.00;3.50;;;13.40;99.90;;;;;;4866136;29;20194;-92
2022/06/15 05:34:34;;;;;;;6.70;3.40;;;13.30;99.90;;;;;;4853824;29;20218;-92
2022/06/15 05:37:08;;;;;;;4.33;3.20;;;13.30;99.90;;;;;;4867696;29;20556;-92
2022/06/15 05:39:39;;;;;;;7.87;3.93;;;13.30;99.90;;;;;;4864505;29;20311;-93
2022/06/15 05:42:11;;;;;;;6.67;4.03;;;13.30;99.90;;;;;;4868233;29;20219;-93
2022/06/15 05:44:51;;;;;;;7.67;3.90;;;13.30;99.90;;;;;;4874251;29;20298;-91
2022/06/15 05:47:22;;;;;;;5.30;3.83;;;13.30;99.90;;;;;;4870030;29;20262;-93
2022/06/15 05:49:54;;;;;;;8.07;4.30;;;13.20;99.90;;;;;;4870787;29;20234;-92
2022/06/15 05:52:28;;;;;;;5.00;3.23;;;13.20;99.90;;;;;;4868932;29;20222;-92
2022/06/15 05:55:01;;;;;;;4.20;3.27;;;13.10;99.90;;;;;;4867655;29;20236;-93
2022/06/15 05:57:32;;;;;;;6.97;3.63;;;13.10;99.90;;;;;;4868102;29;20257;-93
2022/06/15 06:00:05;;;;;;;5.70;3.40;;;13.00;99.90;;;;;;4868732;29;20582;-93
2022/06/15 06:02:37;;;;;;;4.80;3.50;;;13.00;99.90;;;;;;4859772;29;20326;-93
2022/06/15 06:05:09;;;;;;;7.40;3.70;;;13.00;99.90;;;;;;4881933;29;20262;-94
2022/06/15 06:07:42;;;;;;;5.03;3.30;;;13.00;99.90;;;;;;4893963;29;20257;-93
2022/06/15 06:10:14;;;;;;;4.60;3.20;;;13.00;99.90;;;;;;4885502;29;20243;-90
2022/06/15 06:12:46;;;;;;;4.30;2.73;;;13.00;99.90;;;;;;4885969;29;20192;-92
2022/06/15 06:15:18;;;;;;;3.10;2.80;;;13.00;99.90;;;;;;4864694;29;20212;-91
2022/06/15 06:17:49;;;;;;;4.03;2.87;;;13.10;99.90;;;;;;4860679;29;20331;-93
2022/06/15 06:20:21;;;;;;;2.97;2.67;;;13.10;99.90;;;;;;4872617;29;20210;-93
2022/06/15 06:22:54;;;;;;;2.93;2.63;;;13.10;99.90;;;;;;4888205;29;20210;-92
2022/06/15 06:25:25;;;;;;;3.57;3.27;;;13.10;99.90;;;;;;4876516;29;20248;-91
2022/06/15 06:27:56;;;;;;;5.17;3.17;;;13.10;99.90;;;;;;4873351;29;20373;-91
2022/06/15 06:30:27;;;;;;;3.33;3.03;;;13.00;99.90;;;;;;4873603;29;20207;-93
2022/06/15 06:32:59;;;;;;;4.53;2.90;;;13.00;99.90;;;;;;4886458;29;20241;-92
2022/06/15 06:35:31;;;;;;;4.80;3.07;;;13.00;99.90;;;;;;4872110;29;20219;-91
2022/06/15 06:38:04;;;;;;;7.67;3.30;;;13.00;99.90;;;;;;4867799;29;20215;-91
2022/06/15 06:40:35;;;;;;;4.20;3.00;;;13.00;99.90;;;;;;4852460;29;20227;-91
2022/06/15 06:43:07;;;;;;;3.73;2.93;;;13.00;99.90;;;;;;4859324;29;20540;-91
2022/06/15 06:45:38;;;;;;;3.73;3.00;;;13.10;99.90;;;;;;4869601;29;20275;-91
2022/06/15 06:48:10;;;;;;;4.67;3.00;;;13.00;99.90;;;;;;4868187;29;20269;-91
2022/06/15 06:50:42;;;;;;;4.50;2.60;;;13.00;99.90;;;;;;4851942;29;20226;-91
2022/06/15 06:53:16;;;;;;;3.53;2.67;;;12.90;99.90;;;;;;4878160;29;20207;-92
2022/06/15 06:55:48;;;;;;;3.30;2.70;;;12.90;99.90;;;;;;4869002;29;20210;-91
2022/06/15 06:58:19;;;;;;;5.40;2.97;;;12.90;99.90;;;;;;4859086;29;20250;-92
2022/06/15 07:00:51;;;;;;;4.43;3.17;;;12.90;99.90;;;;;;4867976;29;20214;-92
2022/06/15 07:03:23;;;;;;;3.33;2.70;;;12.80;99.90;;;;;;4857032;29;20272;-92
2022/06/15 07:06:00;;;;;;;3.57;2.87;;;12.70;99.90;;;;;;4866894;29;20242;-93
2022/06/15 07:08:34;;;;;;;4.87;2.87;;;12.80;99.90;;;;;;4866540;29;20377;-92
2022/06/15 07:11:10;;;;;;;6.27;2.97;;;12.70;99.90;;;;;;4864979;29;20292;-93
2022/06/15 07:13:41;;;;;;;6.60;3.00;;;12.70;99.90;;;;;;4865480;29;20234;-93
2022/06/15 07:16:15;;;;;;;3.63;2.60;;;12.70;99.90;;;;;;4866116;29;20239;-93
2022/06/15 07:18:48;;;;;;;4.20;2.83;;;12.70;99.90;;;;;;4859815;29;20251;-93
2022/06/15 07:21:21;;;;;;;3.67;2.43;;;12.70;99.90;;;;;;4862764;29;20717;-92
2022/06/15 07:23:57;;;;;;;4.47;2.67;;;12.60;99.90;;;;;;4859030;29;20242;-92
2022/06/15 07:26:31;;;;;;;4.13;2.67;;;12.60;99.90;;;;;;4861662;29;20221;-92
2022/06/15 07:29:03;;;;;;;4.27;2.80;;;12.60;99.90;;;;;;4858345;29;20258;-92
2022/06/15 07:31:37;;;;;;;3.87;2.63;;;12.50;99.90;;;;;;4870550;29;20245;-92
2022/06/15 07:34:08;;;;;;;5.83;2.67;;;12.50;99.90;;;;;;4865270;29;20310;-92
2022/06/15 07:36:46;;;;;;;4.97;2.70;;;12.40;99.90;;;;;;4848731;29;20208;-91
2022/06/15 07:39:21;;;;;;;3.40;2.47;;;12.40;99.90;;;;;;4851173;29;20221;-93
2022/06/15 07:41:53;;;;;;;5.00;2.60;;;12.40;99.90;;;;;;4858864;29;20211;-92
2022/06/15 07:44:25;;;;;;;3.10;2.40;;;12.40;99.90;;;;;;4861469;29;20617;-91
2022/06/15 07:49:58;;;;;;;3.97;2.37;;;12.30;99.90;;;;;;4847715;29;20259;-93
2022/06/15 07:52:52;;;;;;;5.17;2.47;;;12.30;99.90;;;;;;4870295;29;20219;-90
2022/06/15 07:55:27;;;;;;;6.63;2.90;;;12.30;99.90;;;;;;4858489;29;20312;-94
2022/06/15 07:58:00;;;;;;;4.60;2.60;;;12.30;99.90;;;;;;4848517;29;20251;-93
2022/06/15 08:00:31;;;;;;;4.17;2.30;;;12.30;99.90;;;;;;4859042;29;20222;-91
2022/06/15 08:03:03;;;;;;;3.00;2.20;;;12.20;99.90;;;;;;4854835;29;20674;-91
2022/06/15 08:05:39;;;;;;;5.40;2.80;;;12.30;99.90;;;;;;4849568;29;20627;-93
2022/06/15 08:08:12;;;;;;;4.00;2.37;;;12.20;99.90;;;;;;4864691;29;20234;-93
2022/06/15 08:10:45;;;;;;;5.40;2.00;;;12.10;99.90;;;;;;4860605;29;20203;-93
2022/06/15 08:13:17;;;;;;;4.10;2.30;;;12.10;99.90;;;;;;4851642;29;20223;-91
2022/06/15 08:15:50;;;;;;;5.33;2.17;;;12.10;99.90;;;;;;4855763;29;20215;-91
2022/06/15 08:18:25;;;;;;;5.43;2.00;;;12.10;99.90;;;;;;4864913;29;20225;-93
2022/06/15 08:20:59;;;;;;;3.53;2.30;;;12.10;99.90;;;;;;4863933;29;20302;-94
2022/06/15 08:23:33;;;;;;;4.03;2.30;;;12.00;99.90;;;;;;4859749;29;20216;-91
2022/06/15 08:26:15;;;;;;;5.97;2.43;;;12.00;99.90;;;;;;4852703;29;20211;-94
2022/06/15 08:28:50;;;;;;;2.87;1.80;;;12.00;99.90;;;;;;4877285;29;20734;-92
2022/06/15 08:31:22;;;;;;;7.63;2.37;;;12.00;99.90;;;;;;4878676;29;20235;-91
2022/06/15 08:33:54;;;;;;;4.83;2.37;;;12.00;99.90;;;;;;4875771;29;20249;-94
2022/06/15 08:36:27;;;;;;;4.40;2.53;;;12.00;99.90;;;;;;4880872;29;20235;-94
2022/06/15 08:38:59;;;;;;;5.97;2.60;;;12.00;99.90;;;;;;4881563;29;20286;-93
2022/06/15 08:41:47;;;;;;;3.87;2.50;;;12.10;99.90;;;;;;4878171;29;20234;-93
2022/06/15 08:44:31;;;;;;;4.63;1.97;;;12.00;99.90;;;;;;4880704;29;20211;-90
2022/06/15 08:47:18;;;;;;;3.73;2.00;;;12.00;99.90;;;;;;4861610;29;20199;-88
2022/06/15 08:49:58;;;;;;;6.73;2.23;;;12.00;99.90;;;;;;4849884;29;20306;-91
2022/06/15 08:52:34;;;;;;;8.23;2.57;;;12.00;99.90;;;;;;4861139;29;20215;-91
2022/06/15 08:55:12;;;;;;;4.53;2.17;;;12.00;99.90;;;;;;4870123;29;20301;-94
2022/06/15 09:00:52;;;;;;;5.73;2.53;;;12.00;99.90;;;;;;4879131;29;20248;-92
2022/06/15 09:03:32;;;;;;;10.57;2.90;;;12.00;99.90;;;;;;4856718;29;20220;-92
2022/06/15 09:06:17;;;;;;;3.73;2.27;;;12.00;99.90;;;;;;4859778;29;20223;-91
2022/06/15 09:09:04;;;;;;;5.60;2.30;;;11.90;99.90;;;;;;4854081;29;20739;-92
2022/06/15 09:11:48;;;;;;;6.17;2.20;;;11.90;99.90;;;;;;4854135;29;20306;-92
2022/06/15 09:14:35;;;;;;;8.00;2.30;;;11.90;99.90;;;;;;4857540;29;20215;-92
2022/06/15 09:17:11;;;;;;;6.50;2.23;;;11.90;99.90;;;;;;4866976;29;20213;-92
2022/06/15 09:19:48;;;;;;;3.87;1.97;;;11.90;99.90;;;;;;4872112;29;20586;-92
2022/06/15 09:22:24;;;;;;;3.70;1.83;;;11.80;99.90;;;;;;4868175;29;20226;-92
2022/06/15 09:25:01;;;;;;;6.20;2.00;;;11.90;99.90;;;;;;4875860;29;20210;-92
2022/06/15 09:27:37;;;;;;;6.00;2.70;;;11.80;99.90;;;;;;4873729;29;20222;-92
2022/06/15 09:30:15;;;;;;;4.47;2.07;;;11.70;99.90;;;;;;4873074;29;20225;-92
2022/06/15 09:32:54;;;;;;;4.40;2.33;;;11.70;99.90;;;;;;4865956;29;20216;-92
2022/06/15 09:35:30;;;;;;;6.80;2.37;;;11.70;99.90;;;;;;4862862;29;20219;-93
2022/06/15 09:38:06;;;;;;;5.63;2.10;;;11.70;99.90;;;;;;4874770;29;20223;-92
2022/06/15 09:40:45;;;;;;;7.37;2.53;;;11.70;99.90;;;;;;4873360;29;20274;-92
2022/06/15 09:43:25;;;;;;;4.60;1.90;;;11.70;99.90;;;;;;4872857;29;20302;-92
2022/06/15 09:46:07;;;;;;;5.47;2.10;;;11.60;99.90;;;;;;4869904;29;20241;-92
2022/06/15 09:48:51;;;;;;;5.27;1.80;;;11.60;99.90;;;;;;4869267;29;20243;-92
2022/06/15 09:51:29;;;;;;;7.40;2.37;;;11.60;99.90;;;;;;4869054;29;20217;-92
2022/06/15 09:54:12;;;;;;;5.97;2.10;;;11.50;99.90;;;;;;4866032;29;20214;-92
2022/06/15 09:56:44;;;;;;;4.43;2.20;;;11.50;99.90;;;;;;4869559;29;20217;-91
2022/06/15 09:59:18;;;;;;;6.50;2.30;;;11.40;99.90;;;;;;4866839;29;20215;-91
2022/06/15 10:01:52;;;;;;;2.93;1.90;;;11.40;99.90;;;;;;4851679;29;20294;-92
2022/06/15 10:04:28;;;;;;;5.70;1.93;;;11.40;99.90;;;;;;4855757;29;20764;-93
2022/06/15 10:07:25;;;;;;;7.80;2.73;;;11.40;99.90;;;;;;4854669;29;20219;-91
2022/06/15 10:10:00;;;;;;;4.30;2.03;;;11.40;99.90;;;;;;4865368;29;20245;-93
2022/06/15 10:12:58;;;;;;;7.20;2.00;;;11.40;99.90;;;;;;4861694;29;20222;-92
2022/06/15 10:15:51;;;;;;;2.97;1.90;;;11.30;99.90;;;;;;4874452;29;20214;-92
2022/06/15 10:18:33;;;;;;;9.93;2.40;;;11.30;99.90;;;;;;4865509;29;20211;-91
2022/06/15 10:21:19;;;;;;;5.47;2.10;;;11.20;99.90;;;;;;4862246;29;20234;-91
2022/06/15 10:23:55;;;;;;;5.50;2.30;;;11.10;99.90;;;;;;4878106;29;20221;-92
2022/06/15 10:26:32;;;;;;;4.03;2.13;;;11.10;99.90;;;;;;4860880;29;20238;-92
2022/06/15 10:29:30;;;;;;;5.10;2.80;;;11.10;99.90;;;;;;4859217;29;20227;-91
2022/06/15 10:32:21;;;;;;;6.53;2.37;;;11.10;99.90;;;;;;4856460;29;20243;-92
2022/06/15 10:35:10;;;;;;;5.07;2.03;;;11.10;99.90;;;;;;4860180;29;20250;-91
2022/06/15 10:37:46;;;;;;;9.10;2.10;;;11.00;99.90;;;;;;4868261;29;20210;-93
2022/06/15 10:40:28;;;;;;;5.00;2.20;;;11.00;99.90;;;;;;4867365;29;20310;-92
2022/06/15 10:43:06;;;;;;;6.27;2.17;;;10.90;99.90;;;;;;4867856;29;20242;-92
2022/06/15 10:45:42;;;;;;;4.47;2.30;;;10.90;99.90;;;;;;4867627;29;20222;-92
2022/06/15 10:48:18;;;;;;;8.00;2.23;;;10.90;99.90;;;;;;4867276;29;20199;-92
2022/06/15 10:51:01;;;;;;;6.07;2.50;;;10.80;99.90;;;;;;4860499;29;20226;-91
2022/06/15 10:53:43;;;;;;;7.20;2.57;;;10.80;99.90;;;;;;4847787;29;20220;-91
2022/06/15 11:02:30;;;;;;;3.17;2.10;;;10.80;99.90;;;;;;4837828;29;20210;-92
2022/06/15 11:05:06;;;;;;;6.73;2.30;;;10.80;99.90;;;;;;4868403;29;20215;-91
2022/06/15 11:07:45;;;;;;;4.37;2.10;;;10.80;99.90;;;;;;4859036;29;20221;-92
2022/06/15 11:10:29;;;;;;;4.53;2.00;;;10.80;99.90;;;;;;4866106;29;20254;-91
2022/06/15 11:13:04;;;;;;;7.43;2.30;;;10.80;99.90;;;;;;4866808;29;20240;-92
2022/06/15 11:18:37;;;;;;;5.60;2.23;;;10.70;99.90;;;;;;4868762;29;20229;-91
2022/06/15 11:21:12;;;;;;;6.40;2.23;;;10.60;99.90;;;;;;4866284;29;20301;-92
2022/06/15 11:23:55;;;;;;;4.47;2.20;;;10.50;99.90;;;;;;4866462;29;20214;-92
2022/06/15 11:29:54;;;;;;;4.07;2.43;;;10.40;99.90;;;;;;4855632;29;20242;-91
2022/06/15 11:32:38;;;;;;;4.67;2.27;;;10.40;99.90;;;;;;4852045;29;20229;-90
2022/06/15 11:35:21;;;;;;;3.37;2.10;;;10.40;99.90;;;;;;4879037;29;20210;-91
2022/06/15 11:37:58;;;;;;;5.27;2.10;;;10.40;99.90;;;;;;4867439;29;20289;-93
2022/06/15 11:40:41;;;;;;;3.37;2.10;;;10.40;99.90;;;;;;4866165;29;20222;-92
2022/06/15 11:43:20;;;;;;;5.37;2.30;;;10.30;99.90;;;;;;4866012;29;20239;-92
2022/06/15 11:46:18;;;;;;;5.93;2.20;;;10.40;99.90;;;;;;4866640;29;20229;-92
2022/06/15 11:49:04;;;;;;;6.50;2.50;;;10.30;99.90;;;;;;4847916;29;20283;-93
2022/06/15 11:51:48;;;;;;;6.83;2.20;;;10.30;99.90;;;;;;4846628;29;20215;-92
2022/06/15 11:54:32;;;;;;;9.37;2.07;;;10.30;99.90;;;;;;4857889;29;20214;-92
2022/06/15 11:57:18;;;;;;;3.33;2.13;;;10.30;99.90;;;;;;4864785;29;20305;-92
2022/06/15 11:59:57;;;;;;;6.87;2.50;;;10.30;99.90;;;;;;4851831;29;20208;-92
2022/06/15 12:02:42;;;;;;;6.37;2.53;;;10.40;99.90;;;;;;4847321;29;20270;-91
2022/06/15 12:05:27;;;;;;;5.20;2.50;;;10.40;99.90;;;;;;4847592;29;20692;-92
2022/06/15 12:08:10;;;;;;;6.13;2.53;;;10.40;99.90;;;;;;4849377;29;20226;-91
2022/06/15 12:10:47;;;;;;;4.63;2.43;;;10.40;99.90;;;;;;4847533;29;20242;-92
2022/06/15 12:13:31;;;;;;;5.47;2.40;;;10.40;99.90;;;;;;4848030;29;20211;-91
2022/06/15 12:16:09;;;;;;;4.67;2.50;;;10.40;99.90;;;;;;4866363;29;20297;-91
2022/06/15 12:18:53;;;;;;;5.63;2.10;;;10.40;99.90;;;;;;4867218;29;20241;-92
2022/06/15 12:21:30;;;;;;;6.43;2.57;;;10.40;99.90;;;;;;4847994;29;20214;-90
2022/06/15 12:24:09;;;;;;;5.27;2.30;;;10.40;99.90;;;;;;4846956;29;20226;-90
2022/06/15 12:26:49;;;;;;;6.57;2.50;;;10.40;99.90;;;;;;4860694;29;20217;-92
2022/06/15 12:29:35;;;;;;;5.00;2.03;;;10.30;99.90;;;;;;4885837;23;20243;-93
2022/06/15 12:32:43;;;;;;;5.43;2.57;;;10.30;99.90;;;;;;4849708;29;20215;-93
2022/06/15 12:35:33;;;;;;;7.03;2.50;;;10.30;99.90;;;;;;4851759;29;21080;-92
2022/06/15 12:38:21;;;;;;;6.13;2.40;;;10.30;99.90;;;;;;4832195;29;20255;-92
2022/06/15 12:40:54;;;;;;;5.57;2.30;;;10.30;99.90;;;;;;4838632;29;20243;-92
2022/06/15 12:43:34;;;;;;;3.20;2.20;;;10.30;99.90;;;;;;4850042;29;20215;-92
2022/06/15 12:46:13;;;;;;;6.70;3.07;;;10.30;99.90;;;;;;4849605;29;20665;-90
2022/06/15 12:48:56;;;;;;;6.17;2.40;;;10.20;99.90;;;;;;4850399;29;20279;-92
2022/06/15 12:51:37;;;;;;;5.97;2.43;;;10.20;99.90;;;;;;4850193;29;20243;-92
2022/06/15 12:54:18;;;;;;;5.97;2.73;;;10.20;99.90;;;;;;4832575;29;20227;-92
2022/06/15 12:57:02;;;;;;;5.40;2.40;;;10.30;99.90;;;;;;4845515;29;20231;-93
2022/06/15 12:59:47;;;;;;;5.00;2.50;;;10.30;99.90;;;;;;4833367;29;20226;-94
2022/06/15 13:02:26;;;;;;;7.37;2.30;;;10.30;99.90;;;;;;4832368;29;20209;-91
2022/06/15 13:05:11;;;;;;;6.97;2.50;;;10.50;99.90;;;;;;4835047;29;20220;-90
2022/06/15 13:07:44;;;;;;;6.13;2.40;;;10.50;99.90;;;;;;4846866;29;20222;-91
2022/06/15 13:10:34;;;;;;;5.13;2.30;;;10.50;99.90;;;;;;4845885;29;20303;-91
2022/06/15 13:13:08;;;;;;;7.60;2.63;;;10.50;99.90;;;;;;4887664;24;20738;-92
2022/06/15 13:15:56;;;;;;;10.53;3.03;;;10.50;99.90;;;;;;4870903;29;20222;-93
2022/06/15 13:18:49;;;;;;;7.43;2.90;;;10.60;99.90;;;;;;4871438;29;20223;-93
2022/06/15 13:21:22;;;;;;;4.87;2.93;;;10.70;99.90;;;;;;4868390;29;20234;-92
2022/06/15 13:24:05;;;;;;;5.67;2.50;;;10.70;99.90;;;;;;4868406;29;20215;-92
2022/06/15 13:26:58;;;;;;;4.77;2.47;;;10.70;99.90;;;;;;4860545;29;20646;-91
2022/06/15 13:29:34;;;;;;;6.97;2.80;;;10.80;99.90;;;;;;4849374;29;20216;-93
2022/06/15 13:32:07;;;;;;;4.03;2.37;;;10.90;99.90;;;;;;4848529;29;20592;-93
2022/06/15 13:34:51;;;;;;;7.67;2.97;;;11.00;99.90;;;;;;4849952;29;20199;-93
2022/06/15 13:37:35;;;;;;;9.53;2.57;;;11.00;99.90;;;;;;4853363;29;20228;-93
2022/06/15 13:40:12;;;;;;;10.27;2.97;;;11.00;99.90;;;;;;4854804;29;20207;-92
2022/06/15 13:43:02;;;;;;;5.93;2.83;;;11.10;99.90;;;;;;4871448;29;20215;-92
2022/06/15 13:45:42;;;;;;;5.37;2.80;;;11.10;99.90;;;;;;4869427;29;20223;-93
2022/06/15 13:48:17;;;;;;;7.40;2.70;;;11.20;99.90;;;;;;4867479;29;20559;-92
2022/06/15 13:50:53;;;;;;;7.80;2.40;;;11.30;99.90;;;;;;4867810;29;20280;-93
2022/06/15 13:53:35;;;;;;;5.60;2.57;;;11.30;99.90;;;;;;4869305;29;20226;-93
2022/06/15 13:56:13;;;;;;;6.10;2.43;;;11.40;99.90;;;;;;4869169;29;20221;-93
2022/06/15 13:59:08;;;;;;;5.30;2.40;;;11.40;99.90;;;;;;4860450;29;20234;-93
2022/06/15 14:01:59;;;;;;;7.27;2.40;;;11.40;99.90;;;;;;4846579;29;20208;-93
2022/06/15 14:04:50;;;;;;;6.13;2.70;;;11.40;99.90;;;;;;4865473;29;20215;-93
2022/06/15 14:07:37;;;;;;;5.73;2.40;;;11.60;99.90;;;;;;4869028;29;20223;-92
2022/06/15 14:10:22;;;;;;;5.90;2.30;;;11.60;99.90;;;;;;4863165;29;20993;-93
2022/06/15 14:13:16;;;;;;;4.67;2.37;;;11.60;99.90;;;;;;4863105;29;20641;-92
2022/06/15 14:16:09;;;;;;;3.77;2.23;;;11.60;99.90;;;;;;4865540;29;20215;-92
2022/06/15 14:18:47;;;;;;;4.70;2.07;;;11.60;99.90;;;;;;4858570;29;20219;-92
2022/06/15 14:21:24;;;;;;;4.40;2.20;;;11.60;99.90;;;;;;4866161;29;20275;-92
2022/06/15 14:23:59;;;;;;;3.27;1.80;;;11.60;99.90;;;;;;4866880;29;20213;-92
2022/06/15 14:26:32;;;;;;;3.93;2.30;;;11.50;99.90;;;;;;4864236;29;20207;-90
2022/06/15 14:29:06;;;;;;;5.20;2.43;;;11.60;99.90;;;;;;4860052;29;20233;-92
2022/06/15 14:31:38;;;;;;;4.53;2.20;;;11.60;99.90;;;;;;4866690;29;20246;-92
2022/06/15 14:34:15;;;;;;;6.20;2.40;;;11.50;99.90;;;;;;4868191;29;20249;-92
2022/06/15 14:36:54;;;;;;;4.70;2.27;;;11.50;99.90;;;;;;4865073;29;20229;-92
2022/06/15 14:39:30;;;;;;;4.73;2.10;;;11.60;99.90;;;;;;4886421;24;20254;-93
2022/06/15 14:42:10;;;;;;;8.17;2.50;;;11.50;99.90;;;;;;4834045;29;20214;-93
2022/06/15 14:44:42;;;;;;;3.83;2.13;;;11.50;99.90;;;;;;4853386;29;20241;-93
2022/06/15 14:47:18;;;;;;;6.67;2.20;;;11.50;99.90;;;;;;4857718;29;20271;-93
2022/06/15 14:49:56;;;;;;;4.10;2.00;;;11.50;99.90;;;;;;4866844;29;20230;-94
2022/06/15 14:52:33;;;;;;;4.53;1.90;;;11.60;99.90;;;;;;4840333;29;20236;-93
2022/06/15 14:58:11;;;;;;;6.30;2.53;;;11.60;99.90;;;;;;4844046;29;20220;-93
2022/06/15 15:00:45;;;;;;;4.67;2.77;;;11.60;99.90;;;;;;4851924;29;20242;-93
2022/06/15 15:03:29;;;;;;;9.73;2.87;;;11.60;99.90;;;;;;4852906;29;20215;-92
2022/06/15 15:06:13;;;;;;;6.70;2.47;;;11.60;99.90;;;;;;4852367;29;20212;-93
2022/06/15 15:08:50;;;;;;;5.80;2.43;;;11.60;99.90;;;;;;4851466;29;20287;-93
2022/06/15 15:11:35;;;;;;;6.77;2.53;;;11.70;99.90;;;;;;4841414;29;20235;-92
2022/06/15 15:14:09;;;;;;;4.37;2.20;;;11.70;99.90;;;;;;4839194;29;20216;-93
2022/06/15 15:16:43;;;;;;;6.03;2.50;;;11.80;99.90;;;;;;4833020;29;20749;-93
2022/06/15 15:19:35;;;;;;;5.97;2.57;;;11.80;99.90;;;;;;4857858;29;20215;-92
2022/06/15 15:22:12;;;;;;;4.57;2.13;;;12.00;99.90;;;;;;4850733;29;20211;-92
2022/06/15 15:24:49;;;;;;;4.23;2.67;;;12.20;99.90;;;;;;4856284;29;20275;-93
2022/06/15 15:39:11;;;;;;;6.67;2.67;;;12.80;99.90;;;;;;4844166;29;20231;-92
2022/06/15 15:41:44;;;;;;;7.17;2.50;;;12.80;99.90;;;;;;4835680;29;20216;-93
2022/06/15 15:44:20;;;;;;;4.87;2.57;;;12.80;99.90;;;;;;4857556;29;20279;-92
2022/06/15 15:46:52;;;;;;;6.83;2.40;;;12.80;99.90;;;;;;4852128;29;20215;-92
2022/06/15 15:49:24;;;;;;;4.97;2.20;;;12.80;99.90;;;;;;4857207;29;20222;-92
2022/06/15 15:51:57;;;;;;;9.03;2.40;;;12.90;99.90;;;;;;4853156;29;20251;-93
2022/06/15 15:54:28;;;;;;;6.33;2.87;;;13.00;99.90;;;;;;4850320;29;20211;-93
2022/06/15 15:57:02;;;;;;;5.70;2.40;;;13.00;99.90;;;;;;4858016;29;20216;-94
2022/06/15 15:59:36;;;;;;;11.20;2.70;;;13.10;99.90;;;;;;4857054;29;20242;-94
2022/06/15 16:02:12;;;;;;;3.70;2.37;;;13.20;99.90;;;;;;4856894;29;20314;-93
2022/06/15 16:04:46;;;;;;;4.43;2.70;;;13.30;99.90;;;;;;4862459;29;20199;-93
2022/06/15 16:07:22;;;;;;;5.03;3.07;;;13.40;99.90;;;;;;4861074;29;20202;-93
2022/06/15 16:09:57;;;;;;;5.10;2.70;;;13.50;99.90;;;;;;4861897;29;20219;-93
2022/06/15 16:12:31;;;;;;;5.63;2.70;;;13.50;99.90;;;;;;4849153;29;20215;-93
2022/06/15 16:15:06;;;;;;;8.07;2.57;;;13.60;99.90;;;;;;4858923;29;20211;-92
2022/06/15 16:17:38;;;;;;;2.53;2.33;;;13.70;99.90;;;;;;4859753;29;20207;-92
2022/06/15 16:20:17;;;;;;;9.63;2.70;;;13.80;99.90;;;;;;4850759;29;20208;-92
2022/06/15 16:22:50;;;;;;;6.50;2.83;;;13.80;99.90;;;;;;4856488;29;20235;-92
2022/06/15 16:25:24;;;;;;;5.20;2.47;;;13.80;99.90;;;;;;4855716;29;20207;-92
2022/06/15 16:27:58;;;;;;;4.87;2.50;;;13.60;99.90;;;;;;4842975;29;20669;-93
2022/06/15 16:30:35;;;;;;;4.57;2.40;;;13.50;99.90;;;;;;4837278;29;20235;-92
2022/06/15 16:35:55;;;;;;;5.57;2.70;;;13.90;99.90;;;;;;4970012;24;20222;-93
2022/06/15 16:38:27;;;;;;;6.67;2.77;;;14.00;99.90;;;;;;4848294;29;20216;-88
2022/06/15 16:41:11;;;;;;;4.43;2.60;;;13.80;99.90;;;;;;4849628;29;20267;-87
2022/06/15 16:43:45;;;;;;;4.83;2.20;;;13.90;99.90;;;;;;4852575;29;20223;-89
2022/06/15 16:46:25;;;;;;;5.87;2.53;;;14.20;99.90;;;;;;4851357;29;20222;-87
2022/06/15 16:48:58;;;;;;;3.47;2.33;;;14.30;99.90;;;;;;4854559;29;20215;-88
2022/06/15 16:51:36;;;;;;;4.97;2.63;;;14.40;99.90;;;;;;4859060;29;20222;-87
2022/06/15 16:54:11;;;;;;;3.90;2.40;;;14.40;99.90;;;;;;4853310;29;20246;-87
2022/06/15 16:56:45;;;;;;;3.97;2.43;;;14.40;99.90;;;;;;4856889;29;20211;-86
2022/06/15 16:59:19;;;;;;;5.50;2.90;;;14.80;99.90;;;;;;4857091;29;20211;-88
2022/06/15 17:02:01;;;;;;;4.27;2.60;;;14.70;99.90;;;;;;4854671;29;20295;-89
2022/06/15 17:04:39;;;;;;;5.30;2.87;;;14.70;99.90;;;;;;4849398;29;20211;-87
2022/06/15 17:07:14;;;;;;;6.50;2.87;;;14.80;99.90;;;;;;4857346;29;20297;-88
2022/06/15 17:09:47;;;;;;;6.50;2.90;;;14.80;99.90;;;;;;4857698;29;20200;-89
2022/06/15 17:12:21;;;;;;;5.57;2.77;;;14.90;99.90;;;;;;4854620;29;20236;-88
2022/06/15 17:14:54;;;;;;;4.73;2.70;;;15.00;99.90;;;;;;4852803;29;20299;-88
2022/06/15 17:17:29;;;;;;;5.07;2.70;;;15.00;99.90;;;;;;4851374;29;20707;-88
2022/06/15 17:20:04;;;;;;;4.13;2.73;;;15.10;99.90;;;;;;4855213;29;20223;-95
2022/06/15 17:22:36;;;;;;;5.33;2.97;;;15.20;99.90;;;;;;4849108;29;20295;-87
2022/06/15 17:25:22;;;;;;;4.33;2.60;;;15.30;99.90;;;;;;4847903;29;20215;-88
2022/06/15 17:27:54;;;;;;;3.97;2.67;;;15.40;99.90;;;;;;4848368;29;20231;-87
2022/06/15 17:30:32;;;;;;;4.33;3.20;;;15.50;99.90;;;;;;4860666;29;20249;-87
2022/06/15 17:33:06;;;;;;;3.70;2.80;;;15.30;99.90;;;;;;4860683;29;20232;-87
2022/06/15 17:35:39;;;;;;;4.90;2.93;;;15.40;99.90;;;;;;4854924;29;20268;-87
2022/06/15 17:38:11;;;;;;;6.23;3.13;;;15.60;99.90;;;;;;4855408;29;20854;-87
2022/06/15 17:40:45;;;;;;;4.00;2.70;;;15.70;99.90;;;;;;4860775;29;20241;-87
2022/06/15 17:43:16;;;;;;;5.83;2.80;;;15.60;99.90;;;;;;4857496;29;20246;-87
2022/06/15 17:45:59;;;;;;;4.10;2.83;;;15.40;99.90;;;;;;4858809;29;20250;-87
2022/06/15 17:48:34;;;;;;;4.40;2.47;;;15.60;99.90;;;;;;4864204;29;20223;-87
2022/06/15 17:51:05;;;;;;;5.37;2.70;;;15.70;99.90;;;;;;4861126;29;20216;-87
2022/06/15 17:56:13;;;;;;;6.53;2.90;;;16.00;99.90;;;;;;5030505;24;20740;-87
2022/06/15 17:58:45;;;;;;;7.77;3.00;;;16.00;99.90;;;;;;4865979;29;20523;-87
2022/06/15 18:01:16;;;;;;;5.27;2.57;;;16.20;99.90;;;;;;4861508;29;20250;-87
2022/06/15 18:03:50;;;;;;;6.30;2.90;;;16.40;99.90;;;;;;4864539;29;20246;-87
2022/06/15 18:06:22;;;;;;;4.20;2.90;;;16.30;99.90;;;;;;4858966;29;20226;-88
2022/06/15 18:08:54;;;;;;;4.63;3.10;;;16.40;99.90;;;;;;4849283;29;20215;-87
2022/06/15 18:11:25;;;;;;;6.07;3.00;;;16.50;99.90;;;;;;4857722;29;20271;-87
2022/06/15 18:13:59;;;;;;;4.93;3.20;;;16.40;99.90;;;;;;4858499;29;20231;-87
2022/06/15 18:16:34;;;;;;;3.57;2.63;;;16.70;99.90;;;;;;4849277;29;20222;-87
2022/06/15 18:19:12;;;;;;;6.97;3.57;;;16.50;99.90;;;;;;4833800;29;20220;-86
2022/06/15 18:21:46;;;;;;;4.70;2.60;;;16.70;99.90;;;;;;4858530;29;20250;-87
2022/06/15 18:24:20;;;;;;;5.03;2.80;;;16.80;99.90;;;;;;4858022;29;20243;-86
2022/06/15 18:26:54;;;;;;;5.17;3.23;;;16.90;99.90;;;;;;4859073;29;20235;-87
2022/06/15 18:29:26;;;;;;;5.17;3.43;;;16.90;99.90;;;;;;4837927;29;20211;-89
2022/06/15 18:32:03;;;;;;;4.13;2.80;;;16.80;99.90;;;;;;4846096;29;20223;-88
2022/06/15 18:34:38;;;;;;;3.80;2.80;;;16.80;99.90;;;;;;4850987;29;20212;-89